createdAt,value
2022-12-11T00:02:36.242Z,100.00
2022-12-11T00:05:40.201Z,100.00
2022-12-11T00:08:43.053Z,100.00
2022-12-11T00:11:45.739Z,100.00
2022-12-11T00:14:47.831Z,100.00
2022-12-11T00:17:50.196Z,100.00
2022-12-11T00:20:52.424Z,100.00
2022-12-11T00:23:54.805Z,100.00
2022-12-11T00:26:56.955Z,100.00
2022-12-11T00:29:59.372Z,100.00
2022-12-11T00:33:01.455Z,100.00
2022-12-11T00:36:03.989Z,100.00
2022-12-11T00:39:06.517Z,100.00
2022-12-11T00:42:08.934Z,100.00
2022-12-11T00:45:11.771Z,100.00
2022-12-11T00:48:14.326Z,100.00
2022-12-11T00:51:18.033Z,100.00
2022-12-11T00:54:20.366Z,100.00
2022-12-11T00:57:22.460Z,100.00
2022-12-11T01:00:24.917Z,100.00
2022-12-11T01:03:26.987Z,100.00
2022-12-11T01:06:29.633Z,100.00
2022-12-11T01:09:50.202Z,100.00
2022-12-11T01:12:59.159Z,100.00
2022-12-11T01:16:06.465Z,100.00
2022-12-11T01:19:09.078Z,100.00
2022-12-11T01:22:11.522Z,100.00
2022-12-11T01:25:14.323Z,100.00
2022-12-11T01:28:17.325Z,100.00
2022-12-11T01:31:20.185Z,100.00
2022-12-11T01:34:22.299Z,100.00
2022-12-11T01:37:24.643Z,100.00
2022-12-11T01:40:26.862Z,100.00
2022-12-11T01:43:29.381Z,100.00
2022-12-11T01:46:34.469Z,100.00
2022-12-11T01:49:39.337Z,100.00
2022-12-11T01:52:43.360Z,100.00
2022-12-11T01:55:46.899Z,100.00
2022-12-11T01:58:57.464Z,100.00
2022-12-11T02:02:08.168Z,100.00
2022-12-11T02:05:11.446Z,100.00
2022-12-11T02:08:14.363Z,100.00
2022-12-11T02:11:24.037Z,100.00
2022-12-11T02:14:50.245Z,100.00
2022-12-11T02:18:29.827Z,100.00
2022-12-11T02:21:39.242Z,100.00
2022-12-11T02:24:58.271Z,100.00
2022-12-11T02:28:33.494Z,100.00
2022-12-11T02:31:45.143Z,100.00
2022-12-11T02:34:58.132Z,100.00
2022-12-11T02:38:22.618Z,100.00
2022-12-11T02:41:26.215Z,100.00
2022-12-11T02:44:33.327Z,100.00
2022-12-11T02:47:37.143Z,100.00
2022-12-11T02:50:44.402Z,100.00
2022-12-11T02:53:47.382Z,100.00
2022-12-11T02:56:57.265Z,100.00
2022-12-11T02:59:59.427Z,100.00
2022-12-11T03:03:02.288Z,100.00
2022-12-11T03:06:04.656Z,100.00
2022-12-11T03:09:07.507Z,100.00
2022-12-11T03:12:14.896Z,100.00
2022-12-11T03:15:20.600Z,100.00
2022-12-11T03:18:39.468Z,100.00
2022-12-11T03:22:03.640Z,100.00
2022-12-11T03:25:09.222Z,100.00
2022-12-11T03:28:19.329Z,100.00
2022-12-11T03:31:27.466Z,100.00
2022-12-11T03:34:58.342Z,100.00
2022-12-11T03:38:05.495Z,100.00
2022-12-11T03:41:09.969Z,100.00
2022-12-11T03:44:12.562Z,100.00
2022-12-11T03:47:19.689Z,100.00
2022-12-11T03:50:23.868Z,100.00
2022-12-11T03:53:27.178Z,100.00
2022-12-11T03:56:33.790Z,100.00
2022-12-11T03:59:36.268Z,100.00
2022-12-11T04:02:38.529Z,100.00
2022-12-11T04:05:43.297Z,100.00
2022-12-11T04:08:45.545Z,100.00
2022-12-11T04:11:47.950Z,100.00
2022-12-11T04:15:01.868Z,100.00
2022-12-11T04:18:24.141Z,100.00
2022-12-11T04:21:45.112Z,100.00
2022-12-11T04:24:48.122Z,100.00
2022-12-11T04:27:50.147Z,100.00
2022-12-11T04:30:52.620Z,100.00
2022-12-11T04:33:54.797Z,100.00
2022-12-11T04:36:57.237Z,100.00
2022-12-11T04:39:59.370Z,100.00
2022-12-11T04:43:01.814Z,100.00
2022-12-11T04:46:08.170Z,100.00
2022-12-11T04:49:10.607Z,100.00
2022-12-11T04:52:12.668Z,100.00
2022-12-11T04:55:15.049Z,100.00
2022-12-11T04:58:17.182Z,100.00
2022-12-11T05:01:22.409Z,100.00
2022-12-11T05:04:24.737Z,100.00
2022-12-11T05:07:27.381Z,99.61
2022-12-11T05:10:29.508Z,100.00
2022-12-11T05:13:32.457Z,100.00
2022-12-11T05:16:34.544Z,100.00
2022-12-11T05:19:36.959Z,99.97
2022-12-11T05:22:39.519Z,100.00
2022-12-11T05:25:41.840Z,100.00
2022-12-11T05:28:45.335Z,100.00
2022-12-11T05:31:47.770Z,99.66
2022-12-11T05:34:50.744Z,99.64
2022-12-11T05:37:53.169Z,99.55
2022-12-11T05:41:04.258Z,99.38
2022-12-11T05:44:06.616Z,99.05
2022-12-11T05:47:08.937Z,98.50
2022-12-11T05:50:11.640Z,98.90
2022-12-11T05:53:13.712Z,100.00
2022-12-11T05:56:19.069Z,99.26
2022-12-11T05:59:21.251Z,100.00
2022-12-11T06:02:23.773Z,100.00
2022-12-11T06:05:26.237Z,100.00
2022-12-11T06:08:28.548Z,98.46
2022-12-11T06:11:32.599Z,98.62
2022-12-11T06:14:34.695Z,98.61
2022-12-11T06:17:37.143Z,99.51
2022-12-11T06:20:39.571Z,97.67
2022-12-11T06:23:42.888Z,99.19
2022-12-11T06:26:45.065Z,97.05
2022-12-11T06:29:47.451Z,100.00
2022-12-11T06:32:49.615Z,97.36
2022-12-11T06:35:52.238Z,97.51
2022-12-11T06:38:55.425Z,97.68
2022-12-11T06:41:57.857Z,97.62
2022-12-11T06:45:00.006Z,96.75
2022-12-11T06:48:02.374Z,96.11
2022-12-11T06:51:09.944Z,95.94
2022-12-11T06:54:12.311Z,97.29
2022-12-11T06:57:14.524Z,97.61
2022-12-11T07:00:17.219Z,98.11
2022-12-11T07:03:19.277Z,97.16
2022-12-11T07:06:22.017Z,97.21
2022-12-11T07:09:24.543Z,96.82
2022-12-11T07:12:26.942Z,95.78
2022-12-11T07:15:29.043Z,94.82
2022-12-11T07:18:32.707Z,94.65
2022-12-11T07:21:35.205Z,94.77
2022-12-11T07:24:37.616Z,95.00
2022-12-11T07:27:39.676Z,92.40
2022-12-11T07:30:42.049Z,93.10
2022-12-11T07:33:44.425Z,92.10
2022-12-11T07:36:46.806Z,91.63
2022-12-11T07:39:49.068Z,92.27
2022-12-11T07:42:51.462Z,92.09
2022-12-11T07:45:53.625Z,92.24
2022-12-11T07:48:56.246Z,93.33
2022-12-11T07:51:58.370Z,91.80
2022-12-11T07:55:00.757Z,91.31
2022-12-11T07:58:03.685Z,91.89
2022-12-11T08:01:10.307Z,91.47
2022-12-11T08:04:15.578Z,91.45
2022-12-11T08:07:17.656Z,91.17
2022-12-11T08:10:20.142Z,90.71
2022-12-11T08:13:22.238Z,90.33
2022-12-11T08:16:25.346Z,89.62
2022-12-11T08:19:27.966Z,89.32
2022-12-11T08:22:30.329Z,88.61
2022-12-11T08:25:32.843Z,90.10
2022-12-11T08:28:36.009Z,89.02
2022-12-11T08:31:39.905Z,89.06
2022-12-11T08:34:42.306Z,90.01
2022-12-11T08:37:44.445Z,89.75
2022-12-11T08:40:46.811Z,88.87
2022-12-11T08:43:49.102Z,88.19
2022-12-11T08:46:51.444Z,88.59
2022-12-11T08:49:53.511Z,87.63
2022-12-11T08:52:55.960Z,88.43
2022-12-11T08:56:02.357Z,87.92
2022-12-11T08:59:06.236Z,87.78
2022-12-11T09:02:12.753Z,89.24
2022-12-11T09:05:15.272Z,87.60
2022-12-11T09:08:17.939Z,88.14
2022-12-11T09:11:26.881Z,87.11
2022-12-11T09:14:29.015Z,88.36
2022-12-11T09:17:31.531Z,88.32
2022-12-11T09:20:33.601Z,88.02
2022-12-11T09:23:36.801Z,87.11
2022-12-11T09:26:39.952Z,86.97
2022-12-11T09:29:42.473Z,87.82
2022-12-11T09:32:44.550Z,86.83
2022-12-11T09:35:46.943Z,87.48
2022-12-11T09:38:49.004Z,89.10
2022-12-11T09:42:00.365Z,88.40
2022-12-11T09:45:03.996Z,86.83
2022-12-11T09:48:07.807Z,87.90
2022-12-11T09:51:28.695Z,86.49
2022-12-11T09:54:32.470Z,87.29
2022-12-11T09:58:01.342Z,86.57
2022-12-11T10:01:14.936Z,87.46
2022-12-11T10:04:38.366Z,84.86
2022-12-11T10:08:11.956Z,85.45
2022-12-11T10:11:40.052Z,84.36
2022-12-11T10:15:00.976Z,84.74
2022-12-11T10:18:05.481Z,85.29
2022-12-11T10:21:08.127Z,84.55
2022-12-11T10:24:57.533Z,84.30
2022-12-11T10:27:43.481Z,84.37
2022-12-11T10:30:58.942Z,84.43
2022-12-11T10:34:12.890Z,84.89
2022-12-11T10:37:15.339Z,85.13
2022-12-11T10:40:20.488Z,85.04
2022-12-11T10:43:37.557Z,84.22
2022-12-11T10:46:39.695Z,85.14
2022-12-11T10:49:58.938Z,83.30
2022-12-11T10:53:01.593Z,83.79
2022-12-11T10:56:04.715Z,85.45
2022-12-11T10:59:07.081Z,86.43
2022-12-11T11:02:32.522Z,84.39
2022-12-11T11:05:37.094Z,84.37
2022-12-11T11:08:44.561Z,85.60
2022-12-11T11:11:50.945Z,85.12
2022-12-11T11:15:05.549Z,84.55
2022-12-11T11:18:15.257Z,83.68
2022-12-11T11:21:24.126Z,86.17
2022-12-11T11:24:31.463Z,83.87
2022-12-11T11:27:48.566Z,83.72
2022-12-11T11:31:02.702Z,84.71
2022-12-11T11:34:15.310Z,84.31
2022-12-11T11:37:53.768Z,84.14
2022-12-11T11:41:07.602Z,83.77
2022-12-11T11:44:16.843Z,83.59
2022-12-11T11:47:27.916Z,84.88
2022-12-11T11:50:35.941Z,83.95
2022-12-11T11:53:41.436Z,83.70
2022-12-11T11:56:44.231Z,84.15
2022-12-11T11:59:51.113Z,83.78
2022-12-11T12:02:59.580Z,83.72
2022-12-11T12:06:15.405Z,83.76
2022-12-11T12:09:34.023Z,84.29
2022-12-11T12:12:43.657Z,84.25
2022-12-11T12:15:54.733Z,83.74
2022-12-11T12:19:13.471Z,83.55
2022-12-11T12:22:38.047Z,83.67
2022-12-11T12:25:56.971Z,84.06
2022-12-11T12:29:02.071Z,83.87
2022-12-11T12:32:16.744Z,84.88
2022-12-11T12:35:36.579Z,83.34
2022-12-11T12:39:14.239Z,83.86
2022-12-11T12:42:37.489Z,83.60
2022-12-11T12:45:53.765Z,83.50
2022-12-11T12:48:58.718Z,84.33
2022-12-11T12:52:02.380Z,83.71
2022-12-11T12:55:18.625Z,85.50
2022-12-11T12:58:40.092Z,83.73
2022-12-11T13:01:46.880Z,83.17
2022-12-11T13:04:58.761Z,81.84
2022-12-11T13:08:04.834Z,81.69
2022-12-11T13:11:10.241Z,82.08
2022-12-11T13:14:15.438Z,81.91
2022-12-11T13:17:20.701Z,83.43
2022-12-11T13:20:26.420Z,81.86
2022-12-11T13:23:32.430Z,81.75
2022-12-11T13:26:34.517Z,81.13
2022-12-11T13:29:40.099Z,82.22
2022-12-11T13:33:01.620Z,82.37
2022-12-11T13:36:15.941Z,82.65
2022-12-11T13:39:27.550Z,83.16
2022-12-11T13:42:35.196Z,81.02
2022-12-11T13:45:46.466Z,81.69
2022-12-11T13:48:57.242Z,82.72
2022-12-11T13:52:00.546Z,82.68
2022-12-11T13:55:21.899Z,81.78
2022-12-11T13:58:24.772Z,83.48
2022-12-11T14:01:35.302Z,81.07
2022-12-11T14:04:38.081Z,81.86
2022-12-11T14:07:48.675Z,83.10
2022-12-11T14:10:53.051Z,80.82
2022-12-11T14:14:01.292Z,81.45
2022-12-11T14:17:04.278Z,81.54
2022-12-11T14:20:15.269Z,81.51
2022-12-11T14:23:21.111Z,81.03
2022-12-11T14:26:28.773Z,81.52
2022-12-11T14:29:33.467Z,81.01
2022-12-11T14:32:42.131Z,82.37
2022-12-11T14:35:46.473Z,83.98
2022-12-11T14:39:02.169Z,84.01
2022-12-11T14:42:20.889Z,84.44
2022-12-11T14:45:34.434Z,86.12
2022-12-11T14:48:47.057Z,84.79
2022-12-11T14:51:52.395Z,85.03
2022-12-11T14:55:02.583Z,85.63
2022-12-11T14:58:13.901Z,86.52
2022-12-11T15:01:27.631Z,85.73
2022-12-11T15:04:32.085Z,86.68
2022-12-11T15:07:34.650Z,86.77
2022-12-11T15:10:41.617Z,86.46
2022-12-11T15:13:58.761Z,86.45
2022-12-11T15:17:01.177Z,87.66
2022-12-11T15:20:09.713Z,87.29
2022-12-11T15:23:18.643Z,87.14
2022-12-11T15:26:34.615Z,86.82
2022-12-11T15:29:39.216Z,84.94
2022-12-11T15:32:41.805Z,86.45
2022-12-11T15:35:55.607Z,85.26
2022-12-11T15:38:58.450Z,84.78
2022-12-11T15:42:00.973Z,83.79
2022-12-11T15:45:06.736Z,85.06
2022-12-11T15:48:11.349Z,85.44
2022-12-11T15:51:13.689Z,84.44
2022-12-11T15:54:15.820Z,84.61
2022-12-11T15:57:21.662Z,85.29
2022-12-11T16:00:24.711Z,83.45
2022-12-11T16:03:27.185Z,83.39
2022-12-11T16:06:29.273Z,82.75
2022-12-11T16:09:34.542Z,82.69
2022-12-11T16:12:36.667Z,81.95
2022-12-11T16:15:41.548Z,81.99
2022-12-11T16:18:44.141Z,82.00
2022-12-11T16:21:46.562Z,81.08
2022-12-11T16:24:53.376Z,81.25
2022-12-11T16:28:01.240Z,81.51
2022-12-11T16:31:03.688Z,81.43
2022-12-11T16:34:06.126Z,80.51
2022-12-11T16:37:09.397Z,80.62
2022-12-11T16:40:11.967Z,80.84
2022-12-11T16:43:14.034Z,80.15
2022-12-11T16:46:20.917Z,81.83
2022-12-11T16:49:23.135Z,80.11
2022-12-11T16:52:26.060Z,79.41
2022-12-11T16:55:28.292Z,79.27
2022-12-11T16:58:30.727Z,80.52
2022-12-11T17:01:33.738Z,79.97
2022-12-11T17:04:37.629Z,80.63
2022-12-11T17:07:40.358Z,79.49
2022-12-11T17:10:42.761Z,79.55
2022-12-11T17:13:45.387Z,79.36
2022-12-11T17:16:48.212Z,79.21
2022-12-11T17:19:50.449Z,79.74
2022-12-11T17:22:52.894Z,79.79
2022-12-11T17:25:55.346Z,79.60
2022-12-11T17:28:58.196Z,79.60
2022-12-11T17:32:00.686Z,80.26
2022-12-11T17:35:03.114Z,80.08
2022-12-11T17:38:05.332Z,80.21
2022-12-11T17:41:09.297Z,79.53
2022-12-11T17:44:12.809Z,80.16
2022-12-11T17:47:15.266Z,80.09
2022-12-11T17:50:17.421Z,79.63
2022-12-11T17:53:21.144Z,80.40
2022-12-11T17:56:24.216Z,79.60
2022-12-11T17:59:26.629Z,79.11
2022-12-11T18:02:30.246Z,80.75
2022-12-11T18:05:33.133Z,79.95
2022-12-11T18:08:35.784Z,81.12
2022-12-11T18:11:38.300Z,80.68
2022-12-11T18:14:40.444Z,79.75
2022-12-11T18:17:42.824Z,81.02
2022-12-11T18:20:47.966Z,79.78
2022-12-11T18:23:51.330Z,80.33
2022-12-11T18:26:53.455Z,79.69
2022-12-11T18:29:55.861Z,81.73
2022-12-11T18:32:58.687Z,79.79
2022-12-11T18:36:01.147Z,79.89
2022-12-11T18:39:03.766Z,81.59
2022-12-11T18:42:31.558Z,80.70
2022-12-11T18:45:28.332Z,81.03
2022-12-11T18:48:30.729Z,81.60
2022-12-11T18:51:32.829Z,81.61
2022-12-11T18:54:35.234Z,81.49
2022-12-11T18:57:37.377Z,82.02
2022-12-11T19:00:41.154Z,80.36
2022-12-11T19:03:43.265Z,81.35
2022-12-11T19:06:45.668Z,81.40
2022-12-11T19:09:48.409Z,80.83
2022-12-11T19:12:50.984Z,80.92
2022-12-11T19:15:53.144Z,80.55
2022-12-11T19:19:01.901Z,79.45
2022-12-11T19:22:05.257Z,80.37
2022-12-11T19:25:07.965Z,81.01
2022-12-11T19:28:10.277Z,81.70
2022-12-11T19:31:15.695Z,82.44
2022-12-11T19:34:18.111Z,81.21
2022-12-11T19:37:21.141Z,81.78
2022-12-11T19:40:26.188Z,81.85
2022-12-11T19:43:28.769Z,81.95
2022-12-11T19:46:31.268Z,82.01
2022-12-11T19:49:33.711Z,82.57
2022-12-11T19:52:37.499Z,82.17
2022-12-11T19:55:49.697Z,82.05
2022-12-11T19:58:52.078Z,81.44
2022-12-11T20:01:54.557Z,81.57
2022-12-11T20:04:57.029Z,81.59
2022-12-11T20:08:27.391Z,81.45
2022-12-11T20:11:22.823Z,81.24
2022-12-11T20:14:26.419Z,81.70
2022-12-11T20:17:28.909Z,81.97
2022-12-11T20:20:31.830Z,81.73
2022-12-11T20:23:35.663Z,82.06
2022-12-11T20:26:38.484Z,83.55
2022-12-11T20:29:40.918Z,81.96
2022-12-11T20:32:44.095Z,83.78
2022-12-11T20:35:46.523Z,81.99
2022-12-11T20:38:48.758Z,81.94
2022-12-11T20:41:51.144Z,82.21
2022-12-11T20:44:53.779Z,81.90
2022-12-11T20:47:56.181Z,81.82
2022-12-11T20:51:03.824Z,82.61
2022-12-11T20:54:06.409Z,81.35
2022-12-11T20:57:08.918Z,81.50
2022-12-11T21:00:12.125Z,81.42
2022-12-11T21:03:14.698Z,81.09
2022-12-11T21:06:22.300Z,81.61
2022-12-11T21:09:25.936Z,82.01
2022-12-11T21:12:31.499Z,82.68
2022-12-11T21:15:38.031Z,84.09
2022-12-11T21:18:41.497Z,82.50
2022-12-11T21:21:45.164Z,83.96
2022-12-11T21:24:47.558Z,82.99
2022-12-11T21:27:50.240Z,83.94
2022-12-11T21:30:52.653Z,85.66
2022-12-11T21:33:54.902Z,84.22
2022-12-11T21:36:57.581Z,85.07
2022-12-11T21:40:00.243Z,85.06
2022-12-11T21:43:02.727Z,85.22
2022-12-11T21:46:05.474Z,85.81
2022-12-11T21:49:08.453Z,86.30
2022-12-11T21:52:10.692Z,86.16
2022-12-11T21:55:13.647Z,87.27
2022-12-11T21:58:15.987Z,86.79
2022-12-11T22:01:29.062Z,84.48
2022-12-11T22:04:31.570Z,85.16
2022-12-11T22:07:33.668Z,84.94
2022-12-11T22:10:36.043Z,86.33
2022-12-11T22:13:38.161Z,86.01
2022-12-11T22:16:41.191Z,84.38
2022-12-11T22:19:43.676Z,85.85
2022-12-11T22:22:46.745Z,88.16
2022-12-11T22:25:49.530Z,88.31
2022-12-11T22:28:52.500Z,88.83
2022-12-11T22:31:54.876Z,88.40
2022-12-11T22:34:57.847Z,88.79
2022-12-11T22:38:00.008Z,88.32
2022-12-11T22:41:09.344Z,88.92
2022-12-11T22:44:17.388Z,87.40
2022-12-11T22:47:19.843Z,87.86
2022-12-11T22:50:22.260Z,87.54
2022-12-11T22:53:24.670Z,88.34
2022-12-11T22:56:27.056Z,88.53
2022-12-11T22:59:29.514Z,88.67
2022-12-11T23:02:31.706Z,87.90
2022-12-11T23:05:34.075Z,85.39
2022-12-11T23:08:36.378Z,88.39
2022-12-11T23:11:40.262Z,85.10
2022-12-11T23:14:42.386Z,87.66
2022-12-11T23:17:44.822Z,88.61
2022-12-11T23:20:48.340Z,88.12
2022-12-11T23:23:51.306Z,87.90
2022-12-11T23:26:53.757Z,88.91
2022-12-11T23:29:56.207Z,87.56
2022-12-11T23:32:58.273Z,89.00
2022-12-11T23:36:00.728Z,87.35
2022-12-11T23:39:03.289Z,86.15
2022-12-11T23:42:05.732Z,86.79
2022-12-11T23:45:08.217Z,84.93
2022-12-11T23:48:12.558Z,86.21
2022-12-11T23:51:16.983Z,85.02
2022-12-11T23:54:19.371Z,85.73
2022-12-11T23:57:21.849Z,83.72
